createdAt,value
2022-09-07T04:01:10.743Z,99554.91
2022-09-07T04:05:13.326Z,99552.72
2022-09-07T04:09:16.208Z,99559.53
2022-09-07T04:13:18.733Z,99566.63
2022-09-07T04:17:22.640Z,99563.16
2022-09-07T04:21:26.810Z,99556.88
2022-09-07T04:25:29.372Z,99550.19
2022-09-07T04:29:32.014Z,99546.88
2022-09-07T04:33:36.144Z,99532.63
2022-09-07T04:37:38.635Z,99543.88
2022-09-07T04:41:41.155Z,99542.59
2022-09-07T04:45:43.724Z,99531.38
2022-09-07T04:49:51.164Z,99515.81
2022-09-07T04:53:55.898Z,99532.88
2022-09-07T04:57:58.433Z,99541.16
2022-09-07T05:02:01.063Z,99536.06
2022-09-07T05:06:06.128Z,99532.47
2022-09-07T05:10:09.467Z,99534.69
2022-09-07T05:14:12.206Z,99517.53
2022-09-07T05:18:14.750Z,99522.50
2022-09-07T05:22:19.284Z,99521.44
2022-09-07T05:26:24.611Z,99506.09
2022-09-07T05:34:52.884Z,99464.75
2022-09-07T05:38:59.383Z,99469.09
2022-09-07T05:43:01.912Z,99472.59
2022-09-07T05:47:04.600Z,99477.06
2022-09-07T05:51:07.427Z,99460.59
2022-09-07T05:55:28.816Z,99455.25
2022-09-07T05:59:32.786Z,99454.00
2022-09-07T06:03:36.933Z,99453.69
2022-09-07T06:07:39.845Z,99456.16
2022-09-07T06:11:43.754Z,99449.66
2022-09-07T06:15:46.330Z,99449.09
2022-09-07T06:19:48.916Z,99462.09
2022-09-07T06:23:52.561Z,99457.53
2022-09-07T06:27:56.461Z,99454.16
2022-09-07T06:36:23.045Z,99553.97
2022-09-07T06:40:25.771Z,99481.09
2022-09-07T06:44:29.671Z,99483.66
2022-09-07T06:48:32.767Z,99463.41
2022-09-07T06:57:00.230Z,99447.03
2022-09-07T07:01:08.311Z,99446.59
2022-09-07T07:05:11.017Z,99483.19
2022-09-07T07:09:14.453Z,99563.16
2022-09-07T07:17:20.098Z,99497.56
2022-09-07T07:21:22.723Z,99460.41
2022-09-07T07:25:25.267Z,99460.50
2022-09-07T07:29:28.426Z,99452.13
2022-09-07T07:33:33.206Z,99438.13
2022-09-07T07:37:36.599Z,99443.34
2022-09-07T07:41:56.444Z,99440.50
2022-09-07T07:46:05.409Z,99445.53
2022-09-07T07:54:33.897Z,99447.47
2022-09-07T07:58:36.923Z,99457.69
2022-09-07T08:02:39.548Z,99458.19
2022-09-07T08:06:44.604Z,99461.59
2022-09-07T08:10:47.722Z,99471.91
2022-09-07T08:14:50.387Z,99465.81
2022-09-07T08:18:53.571Z,99475.00
2022-09-07T08:22:57.387Z,99479.88
2022-09-07T08:27:00.618Z,99482.81
2022-09-07T08:31:05.916Z,99489.06
2022-09-07T08:35:09.082Z,99488.81
2022-09-07T08:39:12.907Z,99498.78
2022-09-07T08:43:23.597Z,99497.47
2022-09-07T08:47:37.395Z,99497.31
2022-09-07T08:51:44.018Z,99492.91
2022-09-07T08:55:51.849Z,99494.06
2022-09-07T09:00:03.954Z,99486.84
2022-09-07T09:04:16.640Z,99493.69
2022-09-07T09:08:33.340Z,99497.63
2022-09-07T09:12:55.165Z,99492.34
2022-09-07T09:17:01.175Z,99506.75
2022-09-07T09:21:04.106Z,99510.16
2022-09-07T09:25:18.932Z,99499.75
2022-09-07T09:29:24.043Z,99506.63
2022-09-07T09:33:28.818Z,99502.53
2022-09-07T09:37:36.551Z,99504.00
2022-09-07T09:41:40.180Z,99510.38
2022-09-07T09:54:45.872Z,99498.09
2022-09-07T10:07:52.828Z,99497.06
2022-09-07T10:12:07.541Z,99492.47
2022-09-07T10:16:12.431Z,99488.66
2022-09-07T10:20:34.785Z,99490.50
2022-09-07T10:24:40.477Z,99483.97
2022-09-07T10:33:09.061Z,99489.13
2022-09-07T10:37:19.344Z,99477.03
2022-09-07T10:41:28.894Z,99471.78
2022-09-07T10:45:42.412Z,99463.88
2022-09-07T10:54:32.282Z,99465.00
2022-09-07T10:59:02.781Z,99463.50
2022-09-07T11:03:24.955Z,99461.19
2022-09-07T11:07:44.279Z,99460.28
2022-09-07T11:12:03.874Z,99458.25
2022-09-07T11:16:50.519Z,99454.72
2022-09-07T11:20:41.230Z,99455.06
2022-09-07T11:25:29.041Z,99444.31
2022-09-07T11:29:34.671Z,99445.75
2022-09-07T11:38:25.381Z,99442.88
2022-09-07T11:42:49.056Z,99437.00
2022-09-07T11:46:57.272Z,99435.44
2022-09-07T11:51:03.215Z,99434.44
2022-09-07T11:55:11.331Z,99426.91
2022-09-07T11:59:32.487Z,99413.25
2022-09-07T12:04:04.736Z,99400.66
2022-09-07T12:08:19.092Z,99408.22
2022-09-07T12:12:46.999Z,99408.69
2022-09-07T12:17:05.512Z,99398.03
2022-09-07T12:21:38.667Z,99391.22
2022-09-07T12:25:41.297Z,99388.50
2022-09-07T12:29:45.419Z,99391.09
2022-09-07T12:33:49.204Z,99387.34
2022-09-07T12:37:53.624Z,99388.22
2022-09-07T12:42:38.178Z,99389.81
2022-09-07T12:46:49.968Z,99386.47
2022-09-07T12:50:58.962Z,99379.50
2022-09-07T12:55:27.089Z,99381.41
2022-09-07T12:59:50.023Z,99361.66
2022-09-07T13:04:12.658Z,99353.66
2022-09-07T13:08:32.335Z,99355.97
2022-09-07T13:12:57.416Z,99361.28
2022-09-07T13:17:41.568Z,99359.06
2022-09-07T13:21:48.663Z,99350.47
2022-09-07T13:25:57.522Z,99356.88
2022-09-07T13:30:04.014Z,99354.84
2022-09-07T13:34:31.087Z,99354.69
2022-09-07T13:38:37.342Z,99358.94
2022-09-07T13:42:40.178Z,99339.84
2022-09-07T13:46:51.254Z,99345.63
2022-09-07T13:50:59.933Z,99350.44
2022-09-07T13:55:14.171Z,99345.38
2022-09-07T13:59:20.376Z,99347.72
2022-09-07T14:03:26.678Z,99356.75
2022-09-07T14:07:31.207Z,99364.47
2022-09-07T14:11:41.873Z,99369.03
2022-09-07T14:15:46.756Z,99361.63
2022-09-07T14:19:52.396Z,99377.66
2022-09-07T14:23:58.011Z,99393.31
2022-09-07T14:28:02.334Z,99385.56
2022-09-07T14:32:10.624Z,99377.31
2022-09-07T14:36:39.323Z,99383.34
2022-09-07T14:40:37.795Z,99389.81
2022-09-07T14:44:44.871Z,99382.97
2022-09-07T14:48:50.626Z,99381.31
2022-09-07T14:57:32.265Z,99360.72
2022-09-07T15:01:38.839Z,99358.06
2022-09-07T15:05:48.171Z,99358.38
2022-09-07T15:09:51.984Z,99360.22
2022-09-07T15:13:57.805Z,99353.78
2022-09-07T15:18:07.757Z,99346.91
2022-09-07T15:22:13.512Z,99341.41
2022-09-07T15:30:41.626Z,99343.31
2022-09-07T15:34:44.439Z,99344.44
2022-09-07T15:39:03.240Z,99338.38
2022-09-07T15:43:20.068Z,99343.53
2022-09-07T15:56:08.233Z,99329.72
2022-09-07T16:00:13.799Z,99333.06
2022-09-07T16:04:16.553Z,99329.81
2022-09-07T16:08:26.436Z,99316.69
2022-09-07T16:21:17.850Z,99291.38
2022-09-07T16:25:20.421Z,99301.38
2022-09-07T16:29:22.780Z,99301.03
2022-09-07T16:33:35.975Z,99310.66
2022-09-07T16:38:43.630Z,99305.53
2022-09-07T16:42:01.928Z,99314.88
2022-09-07T16:46:05.638Z,99316.16
2022-09-07T16:50:10.119Z,99321.47
2022-09-07T16:54:15.684Z,99327.13
2022-09-07T17:02:40.834Z,99309.25
2022-09-07T17:06:44.503Z,99315.78
2022-09-07T17:10:47.117Z,99313.97
2022-09-07T17:14:49.464Z,99311.97
2022-09-07T17:23:16.824Z,99308.00
2022-09-07T17:27:19.366Z,99318.94
2022-09-07T17:35:46.078Z,99315.88
2022-09-07T17:39:49.963Z,99318.00
2022-09-07T17:43:54.039Z,99304.28
2022-09-07T17:47:56.546Z,99303.97
2022-09-07T17:52:00.869Z,99297.47
2022-09-07T17:56:06.472Z,99316.78
2022-09-07T18:00:11.648Z,99311.75
2022-09-07T18:04:14.736Z,99316.13
2022-09-07T18:08:17.353Z,99314.63
2022-09-07T18:12:22.496Z,99317.56
2022-09-07T18:16:27.654Z,99320.50
2022-09-07T18:20:32.875Z,99331.03
2022-09-07T18:24:36.885Z,99329.72
2022-09-07T18:33:07.586Z,99327.88
2022-09-07T18:37:12.029Z,99337.41
2022-09-07T18:41:15.722Z,99346.91
2022-09-07T18:45:28.769Z,99341.56
2022-09-07T18:49:31.447Z,99351.84
2022-09-07T18:53:34.990Z,99380.78
2022-09-07T18:57:38.218Z,99390.06
2022-09-07T19:01:42.184Z,99396.25
2022-09-07T19:05:53.398Z,99389.22
2022-09-07T19:09:55.881Z,99369.38
2022-09-07T19:13:59.503Z,99375.19
2022-09-07T19:18:05.574Z,99359.38
2022-09-07T19:22:08.258Z,99354.34
2022-09-07T19:26:11.590Z,99368.16
2022-09-07T19:30:15.437Z,99382.34
2022-09-07T19:34:20.145Z,99386.66
2022-09-07T19:38:22.683Z,99388.50
2022-09-07T19:42:26.256Z,99397.69
2022-09-07T19:46:28.758Z,99397.81
2022-09-07T19:50:33.646Z,99390.06
2022-09-07T19:54:36.335Z,99374.03
2022-09-07T19:58:40.647Z,99366.63
2022-09-07T20:02:43.206Z,99362.25
2022-09-07T20:06:49.489Z,99351.41
2022-09-07T20:10:52.978Z,99357.16
2022-09-07T20:14:55.628Z,99371.56
2022-09-07T20:18:58.524Z,99364.63
2022-09-07T20:23:02.651Z,99349.78
2022-09-07T20:27:05.528Z,99356.31
2022-09-07T20:31:09.664Z,99353.31
2022-09-07T20:35:12.218Z,99343.19
2022-09-07T20:39:17.122Z,99336.47
2022-09-07T20:43:19.824Z,99328.66
2022-09-07T20:47:22.366Z,99330.78
2022-09-07T20:51:25.022Z,99328.50
2022-09-07T20:55:28.928Z,99323.59
2022-09-07T20:59:31.402Z,99328.50
